sensor_id;sensor_type;location;lat;lon;timestamp;temperature;humidity
9973;DHT22;5027;53.560;10.062;2023-08-06T00:00:43;20.80;99.90
9973;DHT22;5027;53.560;10.062;2023-08-06T00:03:10;20.90;99.90
9973;DHT22;5027;53.560;10.062;2023-08-06T00:05:37;20.90;99.90
9973;DHT22;5027;53.560;10.062;2023-08-06T00:08:03;20.90;99.90
9973;DHT22;5027;53.560;10.062;2023-08-06T00:10:30;20.90;99.90
9973;DHT22;5027;53.560;10.062;2023-08-06T00:12:57;21.00;99.90
9973;DHT22;5027;53.560;10.062;2023-08-06T00:15:24;21.10;99.90
9973;DHT22;5027;53.560;10.062;2023-08-06T00:17:53;21.10;99.90
9973;DHT22;5027;53.560;10.062;2023-08-06T00:20:20;21.10;99.90
9973;DHT22;5027;53.560;10.062;2023-08-06T00:22:47;21.10;99.90
9973;DHT22;5027;53.560;10.062;2023-08-06T00:25:13;21.10;99.90
9973;DHT22;5027;53.560;10.062;2023-08-06T00:27:43;21.20;99.90
9973;DHT22;5027;53.560;10.062;2023-08-06T00:30:10;21.30;99.90
9973;DHT22;5027;53.560;10.062;2023-08-06T00:32:37;21.30;99.90
9973;DHT22;5027;53.560;10.062;2023-08-06T00:35:04;21.40;99.90
9973;DHT22;5027;53.560;10.062;2023-08-06T00:37:32;21.50;99.90
9973;DHT22;5027;53.560;10.062;2023-08-06T00:40:02;21.50;99.90
9973;DHT22;5027;53.560;10.062;2023-08-06T00:42:28;21.50;99.90
9973;DHT22;5027;53.560;10.062;2023-08-06T00:44:56;21.40;99.90
9973;DHT22;5027;53.560;10.062;2023-08-06T00:47:24;21.20;99.90
9973;DHT22;5027;53.560;10.062;2023-08-06T00:49:51;21.20;99.90
9973;DHT22;5027;53.560;10.062;2023-08-06T00:52:18;21.30;99.90
9973;DHT22;5027;53.560;10.062;2023-08-06T00:54:45;21.30;99.90
9973;DHT22;5027;53.560;10.062;2023-08-06T00:57:12;21.30;99.90
9973;DHT22;5027;53.560;10.062;2023-08-06T00:59:38;21.20;99.90
9973;DHT22;5027;53.560;10.062;2023-08-06T01:02:06;21.20;99.90
9973;DHT22;5027;53.560;10.062;2023-08-06T01:04:33;21.10;99.90
9973;DHT22;5027;53.560;10.062;2023-08-06T01:07:45;21.10;99.90
9973;DHT22;5027;53.560;10.062;2023-08-06T01:10:33;21.00;99.90
9973;DHT22;5027;53.560;10.062;2023-08-06T01:13:27;20.90;99.90
9973;DHT22;5027;53.560;10.062;2023-08-06T01:15:58;20.90;99.90
9973;DHT22;5027;53.560;10.062;2023-08-06T01:18:26;20.80;99.90
9973;DHT22;5027;53.560;10.062;2023-08-06T01:20:53;20.90;99.90
9973;DHT22;5027;53.560;10.062;2023-08-06T01:23:20;20.90;99.90
9973;DHT22;5027;53.560;10.062;2023-08-06T01:26:05;21.00;99.90
9973;DHT22;5027;53.560;10.062;2023-08-06T01:33:00;20.80;99.90
9973;DHT22;5027;53.560;10.062;2023-08-06T01:35:31;20.90;99.90
9973;DHT22;5027;53.560;10.062;2023-08-06T01:38:00;21.00;99.90
9973;DHT22;5027;53.560;10.062;2023-08-06T01:40:29;20.90;99.90
9973;DHT22;5027;53.560;10.062;2023-08-06T01:42:56;20.80;99.90
9973;DHT22;5027;53.560;10.062;2023-08-06T01:45:23;20.80;99.90
9973;DHT22;5027;53.560;10.062;2023-08-06T01:47:50;20.70;99.90
9973;DHT22;5027;53.560;10.062;2023-08-06T01:50:17;20.90;99.90
9973;DHT22;5027;53.560;10.062;2023-08-06T01:52:44;20.80;99.90
9973;DHT22;5027;53.560;10.062;2023-08-06T01:55:11;20.90;99.90
9973;DHT22;5027;53.560;10.062;2023-08-06T01:57:37;20.90;99.90
9973;DHT22;5027;53.560;10.062;2023-08-06T02:00:04;21.00;99.90
9973;DHT22;5027;53.560;10.062;2023-08-06T02:02:38;20.90;99.90
9973;DHT22;5027;53.560;10.062;2023-08-06T02:05:07;20.90;99.90
9973;DHT22;5027;53.560;10.062;2023-08-06T02:07:34;20.90;99.90
9973;DHT22;5027;53.560;10.062;2023-08-06T02:10:00;20.90;99.90
9973;DHT22;5027;53.560;10.062;2023-08-06T02:12:28;21.20;99.90
9973;DHT22;5027;53.560;10.062;2023-08-06T02:14:55;21.40;99.90
9973;DHT22;5027;53.560;10.062;2023-08-06T02:17:22;21.40;99.90
9973;DHT22;5027;53.560;10.062;2023-08-06T02:19:49;21.40;99.90
9973;DHT22;5027;53.560;10.062;2023-08-06T02:22:16;21.40;99.90
9973;DHT22;5027;53.560;10.062;2023-08-06T02:24:43;21.40;99.90
9973;DHT22;5027;53.560;10.062;2023-08-06T02:27:09;21.40;99.90
9973;DHT22;5027;53.560;10.062;2023-08-06T02:29:36;21.50;99.90
9973;DHT22;5027;53.560;10.062;2023-08-06T02:32:04;21.30;99.90
9973;DHT22;5027;53.560;10.062;2023-08-06T02:34:32;21.20;99.90
9973;DHT22;5027;53.560;10.062;2023-08-06T02:36:59;21.20;99.90
9973;DHT22;5027;53.560;10.062;2023-08-06T02:39:25;21.20;99.90
9973;DHT22;5027;53.560;10.062;2023-08-06T02:41:52;21.10;99.90
9973;DHT22;5027;53.560;10.062;2023-08-06T02:44:19;21.10;99.90
9973;DHT22;5027;53.560;10.062;2023-08-06T02:46:46;21.00;99.90
9973;DHT22;5027;53.560;10.062;2023-08-06T02:49:12;21.00;99.90
9973;DHT22;5027;53.560;10.062;2023-08-06T02:51:39;21.10;99.90
9973;DHT22;5027;53.560;10.062;2023-08-06T02:54:06;21.00;99.90
9973;DHT22;5027;53.560;10.062;2023-08-06T02:56:34;21.00;99.90
9973;DHT22;5027;53.560;10.062;2023-08-06T02:59:16;21.00;99.90
9973;DHT22;5027;53.560;10.062;2023-08-06T03:01:53;21.00;99.90
9973;DHT22;5027;53.560;10.062;2023-08-06T03:04:33;21.00;99.90
9973;DHT22;5027;53.560;10.062;2023-08-06T03:07:00;21.00;99.90
9973;DHT22;5027;53.560;10.062;2023-08-06T03:09:36;21.00;99.90
9973;DHT22;5027;53.560;10.062;2023-08-06T03:12:03;21.00;99.90
9973;DHT22;5027;53.560;10.062;2023-08-06T03:14:31;21.00;99.90
9973;DHT22;5027;53.560;10.062;2023-08-06T03:16:57;21.10;99.90
9973;DHT22;5027;53.560;10.062;2023-08-06T03:19:24;20.90;99.90
9973;DHT22;5027;53.560;10.062;2023-08-06T03:21:51;20.80;99.90
9973;DHT22;5027;53.560;10.062;2023-08-06T03:24:18;20.90;99.90
9973;DHT22;5027;53.560;10.062;2023-08-06T03:26:46;20.90;99.90
9973;DHT22;5027;53.560;10.062;2023-08-06T03:29:13;20.90;99.90
9973;DHT22;5027;53.560;10.062;2023-08-06T03:31:41;20.90;99.90
9973;DHT22;5027;53.560;10.062;2023-08-06T03:34:12;20.90;99.90
9973;DHT22;5027;53.560;10.062;2023-08-06T03:36:38;20.90;99.90
9973;DHT22;5027;53.560;10.062;2023-08-06T03:39:06;20.80;99.90
9973;DHT22;5027;53.560;10.062;2023-08-06T03:41:33;20.80;99.90
9973;DHT22;5027;53.560;10.062;2023-08-06T03:44:00;20.80;99.90
9973;DHT22;5027;53.560;10.062;2023-08-06T03:46:29;20.70;99.90
9973;DHT22;5027;53.560;10.062;2023-08-06T03:49:00;20.80;99.90
9973;DHT22;5027;53.560;10.062;2023-08-06T03:51:27;20.80;99.90
9973;DHT22;5027;53.560;10.062;2023-08-06T03:53:55;20.90;99.90
9973;DHT22;5027;53.560;10.062;2023-08-06T03:56:22;20.90;99.90
9973;DHT22;5027;53.560;10.062;2023-08-06T03:58:49;20.90;99.90
9973;DHT22;5027;53.560;10.062;2023-08-06T04:01:16;20.90;99.90
9973;DHT22;5027;53.560;10.062;2023-08-06T04:03:45;21.00;99.90
9973;DHT22;5027;53.560;10.062;2023-08-06T04:06:12;21.00;99.90
9973;DHT22;5027;53.560;10.062;2023-08-06T04:08:39;20.80;99.90
9973;DHT22;5027;53.560;10.062;2023-08-06T04:11:07;20.80;99.90
9973;DHT22;5027;53.560;10.062;2023-08-06T04:13:33;20.80;99.90
9973;DHT22;5027;53.560;10.062;2023-08-06T04:16:01;20.80;99.90
9973;DHT22;5027;53.560;10.062;2023-08-06T04:18:29;20.70;99.90
9973;DHT22;5027;53.560;10.062;2023-08-06T04:20:56;20.70;99.90
9973;DHT22;5027;53.560;10.062;2023-08-06T04:23:24;20.80;99.90
9973;DHT22;5027;53.560;10.062;2023-08-06T04:25:57;20.70;99.90
9973;DHT22;5027;53.560;10.062;2023-08-06T04:28:28;20.80;99.90
9973;DHT22;5027;53.560;10.062;2023-08-06T04:30:55;20.80;99.90
9973;DHT22;5027;53.560;10.062;2023-08-06T04:33:21;20.70;99.90
9973;DHT22;5027;53.560;10.062;2023-08-06T04:35:54;20.70;99.90
9973;DHT22;5027;53.560;10.062;2023-08-06T04:38:24;20.60;99.90
9973;DHT22;5027;53.560;10.062;2023-08-06T04:40:52;20.70;99.90
9973;DHT22;5027;53.560;10.062;2023-08-06T04:43:20;20.70;99.90
9973;DHT22;5027;53.560;10.062;2023-08-06T04:45:51;20.70;99.90
9973;DHT22;5027;53.560;10.062;2023-08-06T04:48:17;20.80;99.90
9973;DHT22;5027;53.560;10.062;2023-08-06T04:50:45;20.90;99.90
9973;DHT22;5027;53.560;10.062;2023-08-06T04:53:13;20.90;99.90
9973;DHT22;5027;53.560;10.062;2023-08-06T04:55:40;20.90;99.90
9973;DHT22;5027;53.560;10.062;2023-08-06T04:58:06;20.90;99.90
9973;DHT22;5027;53.560;10.062;2023-08-06T05:00:33;20.90;99.90
9973;DHT22;5027;53.560;10.062;2023-08-06T05:03:00;20.90;99.90
9973;DHT22;5027;53.560;10.062;2023-08-06T05:05:28;20.90;99.90
9973;DHT22;5027;53.560;10.062;2023-08-06T05:07:56;21.00;99.90
9973;DHT22;5027;53.560;10.062;2023-08-06T05:10:27;20.90;99.90
9973;DHT22;5027;53.560;10.062;2023-08-06T05:12:54;20.90;99.90
9973;DHT22;5027;53.560;10.062;2023-08-06T05:15:21;20.80;99.90
9973;DHT22;5027;53.560;10.062;2023-08-06T05:17:47;20.60;99.90
9973;DHT22;5027;53.560;10.062;2023-08-06T05:20:14;20.60;99.90
9973;DHT22;5027;53.560;10.062;2023-08-06T05:22:41;20.60;99.90
9973;DHT22;5027;53.560;10.062;2023-08-06T05:25:08;20.60;99.90
9973;DHT22;5027;53.560;10.062;2023-08-06T05:27:35;20.50;99.90
9973;DHT22;5027;53.560;10.062;2023-08-06T05:30:01;20.50;99.90
9973;DHT22;5027;53.560;10.062;2023-08-06T05:32:28;20.50;99.90
9973;DHT22;5027;53.560;10.062;2023-08-06T05:34:55;20.60;99.90
9973;DHT22;5027;53.560;10.062;2023-08-06T05:37:22;20.50;99.90
9973;DHT22;5027;53.560;10.062;2023-08-06T05:39:48;20.50;99.90
9973;DHT22;5027;53.560;10.062;2023-08-06T05:42:16;20.50;99.90
9973;DHT22;5027;53.560;10.062;2023-08-06T05:44:42;20.50;99.90
9973;DHT22;5027;53.560;10.062;2023-08-06T05:47:09;20.50;99.90
9973;DHT22;5027;53.560;10.062;2023-08-06T05:49:36;20.40;99.90
9973;DHT22;5027;53.560;10.062;2023-08-06T05:52:03;20.40;99.90
9973;DHT22;5027;53.560;10.062;2023-08-06T05:54:32;20.40;99.90
9973;DHT22;5027;53.560;10.062;2023-08-06T05:56:59;20.30;99.90
9973;DHT22;5027;53.560;10.062;2023-08-06T05:59:25;20.40;99.90
9973;DHT22;5027;53.560;10.062;2023-08-06T06:01:52;20.40;99.90
9973;DHT22;5027;53.560;10.062;2023-08-06T06:04:20;20.50;99.90
9973;DHT22;5027;53.560;10.062;2023-08-06T06:06:46;20.50;99.90
9973;DHT22;5027;53.560;10.062;2023-08-06T06:09:13;20.50;99.90
9973;DHT22;5027;53.560;10.062;2023-08-06T06:11:39;20.40;99.90
9973;DHT22;5027;53.560;10.062;2023-08-06T06:14:06;20.40;99.90
9973;DHT22;5027;53.560;10.062;2023-08-06T06:16:34;20.40;99.90
9973;DHT22;5027;53.560;10.062;2023-08-06T06:19:00;20.30;99.90
9973;DHT22;5027;53.560;10.062;2023-08-06T06:21:27;20.40;99.90
9973;DHT22;5027;53.560;10.062;2023-08-06T06:23:54;20.40;99.90
9973;DHT22;5027;53.560;10.062;2023-08-06T06:26:20;20.30;99.90
9973;DHT22;5027;53.560;10.062;2023-08-06T06:28:47;20.40;99.90
9973;DHT22;5027;53.560;10.062;2023-08-06T06:31:14;20.40;99.90
9973;DHT22;5027;53.560;10.062;2023-08-06T06:33:41;20.50;99.90
9973;DHT22;5027;53.560;10.062;2023-08-06T06:36:07;20.40;99.90
9973;DHT22;5027;53.560;10.062;2023-08-06T06:38:34;20.30;99.90
9973;DHT22;5027;53.560;10.062;2023-08-06T06:41:01;20.30;99.90
9973;DHT22;5027;53.560;10.062;2023-08-06T06:43:29;20.30;99.90
9973;DHT22;5027;53.560;10.062;2023-08-06T06:45:57;20.50;99.90
9973;DHT22;5027;53.560;10.062;2023-08-06T06:48:28;20.50;99.90
9973;DHT22;5027;53.560;10.062;2023-08-06T06:50:55;20.50;99.90
9973;DHT22;5027;53.560;10.062;2023-08-06T06:53:22;20.50;99.90
9973;DHT22;5027;53.560;10.062;2023-08-06T06:55:56;20.60;99.90
9973;DHT22;5027;53.560;10.062;2023-08-06T06:58:23;20.70;99.90
9973;DHT22;5027;53.560;10.062;2023-08-06T07:00:49;20.70;99.90
9973;DHT22;5027;53.560;10.062;2023-08-06T07:03:16;20.70;99.90
9973;DHT22;5027;53.560;10.062;2023-08-06T07:05:44;20.80;99.90
9973;DHT22;5027;53.560;10.062;2023-08-06T07:08:11;20.90;99.90
9973;DHT22;5027;53.560;10.062;2023-08-06T07:10:38;20.90;99.90
9973;DHT22;5027;53.560;10.062;2023-08-06T07:13:09;20.90;99.90
9973;DHT22;5027;53.560;10.062;2023-08-06T07:15:35;20.90;99.90
9973;DHT22;5027;53.560;10.062;2023-08-06T07:18:02;21.10;99.90
9973;DHT22;5027;53.560;10.062;2023-08-06T07:20:29;21.20;99.90
9973;DHT22;5027;53.560;10.062;2023-08-06T07:22:58;21.10;99.90
9973;DHT22;5027;53.560;10.062;2023-08-06T07:25:25;21.20;99.90
9973;DHT22;5027;53.560;10.062;2023-08-06T07:27:52;21.20;99.90
9973;DHT22;5027;53.560;10.062;2023-08-06T07:30:18;21.20;99.90
9973;DHT22;5027;53.560;10.062;2023-08-06T07:32:45;21.10;99.90
9973;DHT22;5027;53.560;10.062;2023-08-06T07:35:12;21.00;99.90
9973;DHT22;5027;53.560;10.062;2023-08-06T07:37:40;21.20;99.90
9973;DHT22;5027;53.560;10.062;2023-08-06T07:40:08;21.10;99.90
9973;DHT22;5027;53.560;10.062;2023-08-06T07:42:35;21.10;99.90
9973;DHT22;5027;53.560;10.062;2023-08-06T07:45:02;21.20;99.90
9973;DHT22;5027;53.560;10.062;2023-08-06T07:47:29;21.20;99.90
9973;DHT22;5027;53.560;10.062;2023-08-06T07:49:55;20.90;99.90
9973;DHT22;5027;53.560;10.062;2023-08-06T07:52:22;21.20;99.90
9973;DHT22;5027;53.560;10.062;2023-08-06T07:54:49;21.20;99.90
9973;DHT22;5027;53.560;10.062;2023-08-06T07:57:15;21.10;99.90
9973;DHT22;5027;53.560;10.062;2023-08-06T07:59:42;21.20;99.90
9973;DHT22;5027;53.560;10.062;2023-08-06T08:02:09;21.20;99.90
9973;DHT22;5027;53.560;10.062;2023-08-06T08:04:35;21.30;99.90
9973;DHT22;5027;53.560;10.062;2023-08-06T08:07:02;21.20;99.90
9973;DHT22;5027;53.560;10.062;2023-08-06T08:09:29;21.20;99.90
9973;DHT22;5027;53.560;10.062;2023-08-06T08:11:55;21.30;99.90
9973;DHT22;5027;53.560;10.062;2023-08-06T08:14:26;21.30;99.90
9973;DHT22;5027;53.560;10.062;2023-08-06T08:16:53;21.30;99.90
9973;DHT22;5027;53.560;10.062;2023-08-06T08:19:20;21.10;99.90
9973;DHT22;5027;53.560;10.062;2023-08-06T08:21:47;21.10;99.90
9973;DHT22;5027;53.560;10.062;2023-08-06T08:24:14;21.20;99.90
9973;DHT22;5027;53.560;10.062;2023-08-06T08:26:40;21.20;99.90
9973;DHT22;5027;53.560;10.062;2023-08-06T08:29:07;21.20;99.90
9973;DHT22;5027;53.560;10.062;2023-08-06T08:31:34;21.20;99.90
9973;DHT22;5027;53.560;10.062;2023-08-06T08:34:05;21.00;99.90
9973;DHT22;5027;53.560;10.062;2023-08-06T08:36:32;21.20;99.90
9973;DHT22;5027;53.560;10.062;2023-08-06T08:38:59;21.20;99.90
9973;DHT22;5027;53.560;10.062;2023-08-06T08:41:29;21.40;99.90
9973;DHT22;5027;53.560;10.062;2023-08-06T08:43:56;21.60;99.90
9973;DHT22;5027;53.560;10.062;2023-08-06T08:46:26;21.70;99.90
9973;DHT22;5027;53.560;10.062;2023-08-06T08:48:54;21.70;99.90
9973;DHT22;5027;53.560;10.062;2023-08-06T08:51:22;21.70;99.90
9973;DHT22;5027;53.560;10.062;2023-08-06T08:53:49;21.70;99.90
9973;DHT22;5027;53.560;10.062;2023-08-06T08:56:19;21.70;99.90
9973;DHT22;5027;53.560;10.062;2023-08-06T08:58:45;21.80;99.90
9973;DHT22;5027;53.560;10.062;2023-08-06T09:01:13;21.90;99.90
9973;DHT22;5027;53.560;10.062;2023-08-06T09:03:39;21.80;99.90
9973;DHT22;5027;53.560;10.062;2023-08-06T09:06:07;21.90;99.90
9973;DHT22;5027;53.560;10.062;2023-08-06T09:08:51;22.00;99.90
9973;DHT22;5027;53.560;10.062;2023-08-06T09:11:22;22.00;99.90
9973;DHT22;5027;53.560;10.062;2023-08-06T09:13:49;22.00;99.90
9973;DHT22;5027;53.560;10.062;2023-08-06T09:16:16;22.00;99.90
9973;DHT22;5027;53.560;10.062;2023-08-06T09:18:44;21.90;99.90
9973;DHT22;5027;53.560;10.062;2023-08-06T09:21:14;21.90;99.90
9973;DHT22;5027;53.560;10.062;2023-08-06T09:23:42;21.90;99.90
9973;DHT22;5027;53.560;10.062;2023-08-06T09:26:11;21.90;99.90
9973;DHT22;5027;53.560;10.062;2023-08-06T09:28:42;21.80;99.90
9973;DHT22;5027;53.560;10.062;2023-08-06T09:31:10;21.70;99.90
9973;DHT22;5027;53.560;10.062;2023-08-06T09:33:37;21.90;99.90
9973;DHT22;5027;53.560;10.062;2023-08-06T09:36:12;21.80;99.90
9973;DHT22;5027;53.560;10.062;2023-08-06T09:38:40;21.70;99.90
9973;DHT22;5027;53.560;10.062;2023-08-06T09:41:07;21.70;99.90
9973;DHT22;5027;53.560;10.062;2023-08-06T09:43:42;21.70;99.90
9973;DHT22;5027;53.560;10.062;2023-08-06T09:46:12;21.70;99.90
9973;DHT22;5027;53.560;10.062;2023-08-06T09:48:40;21.70;99.90
9973;DHT22;5027;53.560;10.062;2023-08-06T09:51:08;21.80;99.90
9973;DHT22;5027;53.560;10.062;2023-08-06T09:53:37;21.80;99.90
9973;DHT22;5027;53.560;10.062;2023-08-06T09:56:04;21.90;99.90
9973;DHT22;5027;53.560;10.062;2023-08-06T09:58:31;21.90;99.90
9973;DHT22;5027;53.560;10.062;2023-08-06T10:01:00;21.70;99.90
9973;DHT22;5027;53.560;10.062;2023-08-06T10:03:28;21.60;99.90
9973;DHT22;5027;53.560;10.062;2023-08-06T10:05:56;21.80;99.90
9973;DHT22;5027;53.560;10.062;2023-08-06T10:08:23;21.80;99.90
9973;DHT22;5027;53.560;10.062;2023-08-06T10:10:50;21.80;99.90
9973;DHT22;5027;53.560;10.062;2023-08-06T10:13:21;21.70;99.90
9973;DHT22;5027;53.560;10.062;2023-08-06T10:15:49;21.60;99.90
9973;DHT22;5027;53.560;10.062;2023-08-06T10:18:17;21.60;99.90
9973;DHT22;5027;53.560;10.062;2023-08-06T10:20:47;21.60;99.90
9973;DHT22;5027;53.560;10.062;2023-08-06T10:23:14;21.80;99.90
9973;DHT22;5027;53.560;10.062;2023-08-06T10:25:42;21.90;99.90
9973;DHT22;5027;53.560;10.062;2023-08-06T10:28:12;21.90;99.90
9973;DHT22;5027;53.560;10.062;2023-08-06T10:33:10;21.90;99.90
9973;DHT22;5027;53.560;10.062;2023-08-06T10:35:40;21.90;99.90
9973;DHT22;5027;53.560;10.062;2023-08-06T10:38:18;21.80;99.90
9973;DHT22;5027;53.560;10.062;2023-08-06T10:43:28;21.90;99.90
9973;DHT22;5027;53.560;10.062;2023-08-06T10:45:57;21.90;99.90
9973;DHT22;5027;53.560;10.062;2023-08-06T10:50:59;21.90;99.90
9973;DHT22;5027;53.560;10.062;2023-08-06T10:53:26;22.00;99.90
9973;DHT22;5027;53.560;10.062;2023-08-06T10:55:54;21.80;99.90
9973;DHT22;5027;53.560;10.062;2023-08-06T10:58:21;21.80;99.90
9973;DHT22;5027;53.560;10.062;2023-08-06T11:00:48;21.70;99.90
9973;DHT22;5027;53.560;10.062;2023-08-06T11:03:15;21.80;99.90
9973;DHT22;5027;53.560;10.062;2023-08-06T11:05:48;21.90;99.90
9973;DHT22;5027;53.560;10.062;2023-08-06T11:08:32;21.90;99.90
9973;DHT22;5027;53.560;10.062;2023-08-06T11:11:19;21.80;99.90
9973;DHT22;5027;53.560;10.062;2023-08-06T11:13:48;21.70;99.90
9973;DHT22;5027;53.560;10.062;2023-08-06T11:16:23;21.50;99.90
9973;DHT22;5027;53.560;10.062;2023-08-06T11:18:51;21.60;99.90
9973;DHT22;5027;53.560;10.062;2023-08-06T11:21:21;21.60;99.90
9973;DHT22;5027;53.560;10.062;2023-08-06T11:23:48;21.80;99.90
9973;DHT22;5027;53.560;10.062;2023-08-06T11:26:21;21.80;99.90
9973;DHT22;5027;53.560;10.062;2023-08-06T11:28:49;21.80;99.90
9973;DHT22;5027;53.560;10.062;2023-08-06T11:31:20;21.90;99.90
9973;DHT22;5027;53.560;10.062;2023-08-06T11:33:47;21.90;99.90
9973;DHT22;5027;53.560;10.062;2023-08-06T11:36:14;21.80;99.90
9973;DHT22;5027;53.560;10.062;2023-08-06T11:38:41;21.70;99.90
9973;DHT22;5027;53.560;10.062;2023-08-06T11:41:07;21.80;99.90
9973;DHT22;5027;53.560;10.062;2023-08-06T11:43:34;21.70;99.90
9973;DHT22;5027;53.560;10.062;2023-08-06T11:46:01;21.60;99.90
9973;DHT22;5027;53.560;10.062;2023-08-06T11:48:27;21.50;99.90
9973;DHT22;5027;53.560;10.062;2023-08-06T11:50:54;21.50;99.90
9973;DHT22;5027;53.560;10.062;2023-08-06T11:53:22;21.40;99.90
9973;DHT22;5027;53.560;10.062;2023-08-06T11:55:53;21.40;99.90
9973;DHT22;5027;53.560;10.062;2023-08-06T11:58:20;21.40;99.90
9973;DHT22;5027;53.560;10.062;2023-08-06T12:00:47;21.50;99.90
9973;DHT22;5027;53.560;10.062;2023-08-06T12:03:13;21.50;99.90
9973;DHT22;5027;53.560;10.062;2023-08-06T12:05:44;21.60;99.90
9973;DHT22;5027;53.560;10.062;2023-08-06T12:08:13;21.60;99.90
9973;DHT22;5027;53.560;10.062;2023-08-06T12:10:40;21.60;99.90
9973;DHT22;5027;53.560;10.062;2023-08-06T12:13:06;21.60;99.90
9973;DHT22;5027;53.560;10.062;2023-08-06T12:15:33;21.60;99.90
9973;DHT22;5027;53.560;10.062;2023-08-06T12:18:00;21.60;99.90
9973;DHT22;5027;53.560;10.062;2023-08-06T12:20:27;21.50;99.90
9973;DHT22;5027;53.560;10.062;2023-08-06T12:22:54;21.50;99.90
9973;DHT22;5027;53.560;10.062;2023-08-06T12:25:21;21.60;99.90
9973;DHT22;5027;53.560;10.062;2023-08-06T12:27:49;21.70;99.90
9973;DHT22;5027;53.560;10.062;2023-08-06T12:30:16;21.60;99.90
9973;DHT22;5027;53.560;10.062;2023-08-06T12:32:43;21.60;99.90
9973;DHT22;5027;53.560;10.062;2023-08-06T12:35:10;21.40;99.90
9973;DHT22;5027;53.560;10.062;2023-08-06T12:37:36;21.40;99.90
9973;DHT22;5027;53.560;10.062;2023-08-06T12:40:06;21.50;99.90
9973;DHT22;5027;53.560;10.062;2023-08-06T12:42:53;21.30;99.90
9973;DHT22;5027;53.560;10.062;2023-08-06T12:45:19;21.40;99.90
9973;DHT22;5027;53.560;10.062;2023-08-06T12:47:48;21.50;99.90
9973;DHT22;5027;53.560;10.062;2023-08-06T12:50:16;21.70;99.90
9973;DHT22;5027;53.560;10.062;2023-08-06T12:52:43;21.50;99.90
9973;DHT22;5027;53.560;10.062;2023-08-06T12:55:10;21.40;99.90
9973;DHT22;5027;53.560;10.062;2023-08-06T12:57:37;21.40;99.90
9973;DHT22;5027;53.560;10.062;2023-08-06T13:00:23;21.50;99.90
9973;DHT22;5027;53.560;10.062;2023-08-06T13:02:50;21.60;99.90
9973;DHT22;5027;53.560;10.062;2023-08-06T13:05:17;21.60;99.90
9973;DHT22;5027;53.560;10.062;2023-08-06T13:07:43;21.60;99.90
9973;DHT22;5027;53.560;10.062;2023-08-06T13:10:10;21.50;99.90
9973;DHT22;5027;53.560;10.062;2023-08-06T13:12:37;21.60;99.90
9973;DHT22;5027;53.560;10.062;2023-08-06T13:15:04;21.70;99.90
9973;DHT22;5027;53.560;10.062;2023-08-06T13:17:31;21.80;99.90
9973;DHT22;5027;53.560;10.062;2023-08-06T13:19:57;21.90;99.90
9973;DHT22;5027;53.560;10.062;2023-08-06T13:22:24;21.90;99.90
9973;DHT22;5027;53.560;10.062;2023-08-06T13:24:51;22.00;99.90
9973;DHT22;5027;53.560;10.062;2023-08-06T13:27:17;22.00;99.90
9973;DHT22;5027;53.560;10.062;2023-08-06T13:29:44;22.00;99.90
9973;DHT22;5027;53.560;10.062;2023-08-06T13:32:11;22.00;99.90
9973;DHT22;5027;53.560;10.062;2023-08-06T13:34:37;22.00;99.90
9973;DHT22;5027;53.560;10.062;2023-08-06T13:37:04;22.00;99.90
9973;DHT22;5027;53.560;10.062;2023-08-06T13:39:31;22.00;99.90
9973;DHT22;5027;53.560;10.062;2023-08-06T13:41:58;22.10;99.90
9973;DHT22;5027;53.560;10.062;2023-08-06T13:44:24;22.10;99.90
9973;DHT22;5027;53.560;10.062;2023-08-06T13:46:51;22.10;99.90
9973;DHT22;5027;53.560;10.062;2023-08-06T13:49:18;22.10;99.90
9973;DHT22;5027;53.560;10.062;2023-08-06T13:51:45;22.00;99.90
9973;DHT22;5027;53.560;10.062;2023-08-06T13:54:11;22.00;99.90
9973;DHT22;5027;53.560;10.062;2023-08-06T13:56:38;22.00;99.90
9973;DHT22;5027;53.560;10.062;2023-08-06T13:59:05;22.10;99.90
9973;DHT22;5027;53.560;10.062;2023-08-06T14:01:32;22.10;99.90
9973;DHT22;5027;53.560;10.062;2023-08-06T14:04:15;22.10;99.90
9973;DHT22;5027;53.560;10.062;2023-08-06T14:06:41;22.10;99.90
9973;DHT22;5027;53.560;10.062;2023-08-06T14:09:08;22.10;99.90
9973;DHT22;5027;53.560;10.062;2023-08-06T14:11:35;22.10;99.90
9973;DHT22;5027;53.560;10.062;2023-08-06T14:14:02;22.20;99.90
9973;DHT22;5027;53.560;10.062;2023-08-06T14:16:30;22.10;99.90
9973;DHT22;5027;53.560;10.062;2023-08-06T14:18:56;22.20;99.90
9973;DHT22;5027;53.560;10.062;2023-08-06T14:21:23;22.20;99.90
9973;DHT22;5027;53.560;10.062;2023-08-06T14:23:50;22.10;99.90
9973;DHT22;5027;53.560;10.062;2023-08-06T14:26:16;22.10;99.90
9973;DHT22;5027;53.560;10.062;2023-08-06T14:28:43;22.10;99.90
9973;DHT22;5027;53.560;10.062;2023-08-06T14:31:11;22.20;99.90
9973;DHT22;5027;53.560;10.062;2023-08-06T14:33:38;22.20;99.90
9973;DHT22;5027;53.560;10.062;2023-08-06T14:36:05;22.20;99.90
9973;DHT22;5027;53.560;10.062;2023-08-06T14:38:32;22.20;99.90
9973;DHT22;5027;53.560;10.062;2023-08-06T14:41:06;22.20;99.90
9973;DHT22;5027;53.560;10.062;2023-08-06T14:43:33;22.30;99.90
9973;DHT22;5027;53.560;10.062;2023-08-06T14:45:59;22.30;99.90
9973;DHT22;5027;53.560;10.062;2023-08-06T14:48:26;22.30;99.90
9973;DHT22;5027;53.560;10.062;2023-08-06T14:50:54;22.30;99.90
9973;DHT22;5027;53.560;10.062;2023-08-06T14:53:21;22.30;99.90
9973;DHT22;5027;53.560;10.062;2023-08-06T14:55:47;22.30;99.90
9973;DHT22;5027;53.560;10.062;2023-08-06T14:58:14;22.30;99.90
9973;DHT22;5027;53.560;10.062;2023-08-06T15:00:41;22.20;99.90
9973;DHT22;5027;53.560;10.062;2023-08-06T15:03:08;22.20;99.90
9973;DHT22;5027;53.560;10.062;2023-08-06T15:05:35;22.20;99.90
9973;DHT22;5027;53.560;10.062;2023-08-06T15:08:01;22.20;99.90
9973;DHT22;5027;53.560;10.062;2023-08-06T15:10:28;22.20;99.90
9973;DHT22;5027;53.560;10.062;2023-08-06T15:12:55;22.20;99.90
9973;DHT22;5027;53.560;10.062;2023-08-06T15:15:22;22.30;99.90
9973;DHT22;5027;53.560;10.062;2023-08-06T15:17:49;22.20;99.90
9973;DHT22;5027;53.560;10.062;2023-08-06T15:20:16;22.20;99.90
9973;DHT22;5027;53.560;10.062;2023-08-06T15:22:43;22.20;99.90
9973;DHT22;5027;53.560;10.062;2023-08-06T15:25:10;22.20;99.90
9973;DHT22;5027;53.560;10.062;2023-08-06T15:27:36;22.20;99.90
9973;DHT22;5027;53.560;10.062;2023-08-06T15:30:03;22.10;99.90
9973;DHT22;5027;53.560;10.062;2023-08-06T15:32:30;22.00;99.90
9973;DHT22;5027;53.560;10.062;2023-08-06T15:34:58;22.00;99.90
9973;DHT22;5027;53.560;10.062;2023-08-06T15:37:25;22.10;99.90
9973;DHT22;5027;53.560;10.062;2023-08-06T15:39:52;22.10;99.90
9973;DHT22;5027;53.560;10.062;2023-08-06T15:42:19;22.10;99.90
9973;DHT22;5027;53.560;10.062;2023-08-06T15:44:46;22.10;99.90
9973;DHT22;5027;53.560;10.062;2023-08-06T15:47:12;22.10;99.90
9973;DHT22;5027;53.560;10.062;2023-08-06T15:49:39;22.00;99.90
9973;DHT22;5027;53.560;10.062;2023-08-06T15:52:06;22.10;99.90
9973;DHT22;5027;53.560;10.062;2023-08-06T15:54:33;22.20;99.90
9973;DHT22;5027;53.560;10.062;2023-08-06T15:57:00;22.20;99.90
9973;DHT22;5027;53.560;10.062;2023-08-06T15:59:31;22.10;99.90
9973;DHT22;5027;53.560;10.062;2023-08-06T16:01:59;22.10;99.90